Annapolis, MD (21403)

6:21 AM EDT on March 27, 2015 (GMT -0400)
Bay Ridge | | Change Station
CLOSE
Current Station
Personal Weather Station
Location: Annapolis, MD
Elevation: 39 ft
Nearby Weather Stations

Elev 39 ft 38.94 °N, 76.46 °W | Updated 17 seconds ago

Rain
Rain
41.9 °F
Feels Like 42 °F
N
2.2
Wind Variable Wind from West
Gusts 5.4 mph

Today
High -- | Low -- °F
--% Chance of Precip.
Yesterday
High -- | Low -- °F
Precip. -- in
6:58 AM 7:24 PM
Waxing Crescent, 51% visible
Pressure 29.81 in
Visibility 6.0 miles
Clouds Few 1400 ft
Mostly Cloudy 4100 ft
Overcast 8000 ft
Windchill 42 °F
Dew Point 42 °F
Humidity 99%
Rainfall 0.40 in
Snow Depth Not available.
UV 0 out of 12
Pollen 7.60 out of 12
Air Quality Not available.
Flu Activity Not available.
METAR KNAK 270954Z AUTO 35011KT 6SM -RA BR FEW014 BKN041 OVC080 06/04 A2980 RMK AO2 SLP092 P0004 T00560039

More Conditions Fewer Conditions

Pressure 29.81 in
Visibility 6.0 miles
Clouds Few 1400 ft
Mostly Cloudy 4100 ft
Overcast 8000 ft
Windchill 42 °F
Dew Point 42 °F
Humidity 99%
Rainfall 0.40 in
Snow Depth Not available.
UV 0 out of 12
Pollen 7.60 out of 12
Air Quality Not available.
Flu Activity Not available.
METAR KNAK 270954Z AUTO 35011KT 6SM -RA BR FEW014 BKN041 OVC080 06/04 A2980 RMK AO2 SLP092 P0004 T00560039

More Conditions Fewer Conditions

10-Day Weather Forecast

Almanac

Astronomy

Mar. 27, 2015 Rise Set
Actual Time
Civil Twilight
Nautical Twilight
Astronomical Twilight
Moon
Length of Visible Light
Length of Day
Tomorrow will be .
, % of the Moon is Illuminated

Today's Extremes

State Highs State Lows

Community

WunderPhotos

Upload Photos

1,808,706 photos uploaded!

WunderBlogs® & News

Nearby

Air Quality

  Air Quality AQ Index Pollutant
Not available.

Snow Depth

Station Depth Elevation

Earthquake Activity

City Distance Mag. Time & Date
Minimum magnitude displayed is 2.5.

Coastal Water Temperatures

Place Temperature

Stations

Nearby Weather Stations

Station Location Temp. Windchill Dew Point Humidity Wind Precip. Elev Updated Type